UAAAOMSJ

Guest
Details From UAAA - Almaty
To OMSJ - Sharjah Intl
Flight Number -
Tags Generated
Created
Modified
Stats Distance 1,511 nm / 2,799 km
Max Altitude 0 ft / 0 m
Waypoints 4
Social Downloads 0
Likes 0
Share VATSIM

Download

Looking for another format? Having issues loading an existing format? Contact us
Advertisement - Login to hide

Notes

Generated

Route

UAAA OSH SHJ OMSJ

ID Type Via Altitude Latitude Longitude Leg Dist Tot Dist Heading (true) Name
O UAAA APT - 0 ft / 0 m 43.34096˚ 77.01807˚ - 0 nm - -
OSH FIX - 0 ft / 0 m 40.63667˚ 72.74333˚ 250 nm 250 nm 231° / 228° -
SHJ VOR - 0 ft / 0 m 25.33016˚ 55.52043˚ 1259 nm 1509 nm 228° / 219° SHARJAH VOR-DME
O OMSJ APT - 0 ft / 0 m 25.33834˚ 55.50025˚ 1 nm 1511 nm 294° / 294° -

Altitude Profile

Advertisement - Login to hide

Weather


0- 5 10 15 20 25 30 35+ Temperature / ° C

Clouds and Precipitation
Forecast for 2018-05-24 00:00 UTC. Updated 2 hours ago

Ground ~20,000 ft ~40,000 ft Winds

UAAA

Details ICAO UAAA (ALA)
Name Almaty Intl
Region Kazakhstan and Kyrgyzstan
Timezone Asia/Almaty (UTC+6.0)
Stats Elevation 2,234 ft / 681 m (AMSL)
Location 43.355235° 77.044570°
Runways 2
Magnetic Variation 5.181° E

METAR

UAAA 240100Z 00000MPS 9999 NSC 07/03 Q1028 R05R/2/0150 NOSIG

Decode

TAF

TAF TAF UAAA 232300Z 2400/2424 32005MPS 9999 BKN020CB BKN100 TX15/2409Z TN03/2401Z TEMPO 2400/2402 0500 -RA FG SCT003 BECMG 2403/2404 02005MPS SCT040CB BKN100 TEMPO 2412/2422 16005MPS 3000 BR FU

Decode

Departure Runways

ID Width Length Bearing (true) Bearing (mag) Surface Threshold Offset Overrun Length
05L 200 ft / 61 m 14,778 ft / 4,504 m 55.73° 50.55° Concrete 0 ft / 0 m 325 ft / 99 m
05R 148 ft / 45 m 14,408 ft / 4,392 m 55.72° 50.54° Asphalt 0 ft / 0 m 226 ft / 69 m
23L 148 ft / 45 m 14,408 ft / 4,392 m 235.75° 230.57° Asphalt 0 ft / 0 m 226 ft / 69 m
23R 200 ft / 61 m 14,778 ft / 4,504 m 235.76° 230.58° Concrete 0 ft / 0 m 390 ft / 119 m

OMSJ

Details ICAO OMSJ (SHJ)
Name SHARJAH INTL
Region United Arab Emirates
Timezone Asia/Dubai (UTC+4.0)
Stats Elevation 111 ft / 34 m (AMSL)
Location 25.328587° 55.517218°
Runways 1
Magnetic Variation 2.065° E

METAR

OMSJ 240100Z 17004KT CAVOK 28/15 Q1005

Decode

TAF

TAF OMSJ 232259Z 2400/2506 16008KT CAVOK BECMG 2408/2410 32015KT BECMG 2415/2417 09005KT BECMG 2502/2504 18012KT

Decode

Destination Runways

ID Width Length Bearing (true) Bearing (mag) Surface Threshold Offset Overrun Length
12 148 ft / 45 m 13,266 ft / 4,043 m 122.45° 120.38° Asphalt 689 ft / 210 m 488 ft / 149 m
30 148 ft / 45 m 13,266 ft / 4,043 m 302.47° 300.40° Asphalt 984 ft / 300 m 488 ft / 149 m

Approach Navaids

Runway Type Ident Frequency Range Bearing (true) Bearing (mag) Slope Elevation
30 Localiser ISJ 109.70 MHz 18 nm / 33 km 302.45° 300.38° - 111 ft / 34 m (AMSL)
30 Glidescope ISJ 109.70 MHz 10 nm / 19 km 302.46° 300.39° 3.00° 111 ft / 34 m (AMSL)

Popular Alternatives